sensor_id;sensor_type;location;lat;lon;timestamp;pressure;altitude;pressure_sealevel;temperature;humidity
36260;BME280;22296;50.824;5.644;2023-05-11T00:01:09;100553.91;;;18.70;61.50
36260;BME280;22296;50.824;5.644;2023-05-11T00:03:36;100551.00;;;18.67;61.22
36260;BME280;22296;50.824;5.644;2023-05-11T00:06:04;100549.84;;;18.68;61.57
36260;BME280;22296;50.824;5.644;2023-05-11T00:08:30;100545.41;;;18.67;61.24
36260;BME280;22296;50.824;5.644;2023-05-11T00:10:57;100549.34;;;18.66;61.57
36260;BME280;22296;50.824;5.644;2023-05-11T00:13:27;100540.16;;;18.65;61.45
36260;BME280;22296;50.824;5.644;2023-05-11T00:15:54;100546.09;;;18.64;61.70
36260;BME280;22296;50.824;5.644;2023-05-11T00:18:21;100544.84;;;18.61;61.45
36260;BME280;22296;50.824;5.644;2023-05-11T00:20:48;100544.84;;;18.61;61.58
36260;BME280;22296;50.824;5.644;2023-05-11T00:23:15;100543.69;;;18.62;61.38
36260;BME280;22296;50.824;5.644;2023-05-11T00:25:42;100538.78;;;18.59;61.39
36260;BME280;22296;50.824;5.644;2023-05-11T00:28:09;100542.03;;;18.61;61.47
36260;BME280;22296;50.824;5.644;2023-05-11T00:30:38;100546.00;;;18.60;61.38
36260;BME280;22296;50.824;5.644;2023-05-11T00:33:06;100541.09;;;18.57;61.36
36260;BME280;22296;50.824;5.644;2023-05-11T00:35:32;100539.59;;;18.60;61.47
36260;BME280;22296;50.824;5.644;2023-05-11T00:37:59;100541.59;;;18.59;61.84
36260;BME280;22296;50.824;5.644;2023-05-11T00:40:26;100541.09;;;18.57;61.62
36260;BME280;22296;50.824;5.644;2023-05-11T00:42:53;100539.50;;;18.56;61.83
36260;BME280;22296;50.824;5.644;2023-05-11T00:45:19;100535.53;;;18.57;61.41
36260;BME280;22296;50.824;5.644;2023-05-11T00:47:46;100535.53;;;18.57;61.49
36260;BME280;22296;50.824;5.644;2023-05-11T00:50:13;100535.53;;;18.57;61.69
36260;BME280;22296;50.824;5.644;2023-05-11T00:52:41;100531.81;;;18.53;61.72
36260;BME280;22296;50.824;5.644;2023-05-11T00:55:08;100538.56;;;18.52;61.81
36260;BME280;22296;50.824;5.644;2023-05-11T00:57:36;100534.63;;;18.53;61.73
36260;BME280;22296;50.824;5.644;2023-05-11T01:00:05;100529.03;;;18.53;61.37
36260;BME280;22296;50.824;5.644;2023-05-11T01:02:32;100532.53;;;18.50;61.71
36260;BME280;22296;50.824;5.644;2023-05-11T01:04:59;100538.56;;;18.52;61.79
36260;BME280;22296;50.824;5.644;2023-05-11T01:07:33;100538.09;;;18.50;61.77
36260;BME280;22296;50.824;5.644;2023-05-11T01:13:22;100537.28;;;18.50;61.88
36260;BME280;22296;50.824;5.644;2023-05-11T01:15:54;100535.97;;;18.47;61.76
36260;BME280;22296;50.824;5.644;2023-05-11T01:18:37;100544.84;;;18.49;62.01
36260;BME280;22296;50.824;5.644;2023-05-11T01:21:10;100540.09;;;18.50;61.63
36260;BME280;22296;50.824;5.644;2023-05-11T01:31:45;100545.06;;;18.44;62.11
36260;BME280;22296;50.824;5.644;2023-05-11T01:34:18;100542.38;;;18.48;61.98
36260;BME280;22296;50.824;5.644;2023-05-11T01:36:51;100543.88;;;18.45;61.79
36260;BME280;22296;50.824;5.644;2023-05-11T01:39:21;100534.22;;;18.43;61.84
36260;BME280;22296;50.824;5.644;2023-05-11T01:41:52;100549.47;;;18.45;62.08
36260;BME280;22296;50.824;5.644;2023-05-11T01:44:22;100547.84;;;18.44;61.81
36260;BME280;22296;50.824;5.644;2023-05-11T01:46:52;100547.84;;;18.44;61.66
36260;BME280;22296;50.824;5.644;2023-05-11T01:49:19;100548.66;;;18.45;61.79
36260;BME280;22296;50.824;5.644;2023-05-11T01:51:48;100544.13;;;18.40;62.01
36260;BME280;22296;50.824;5.644;2023-05-11T01:54:18;100547.72;;;18.41;61.83
36260;BME280;22296;50.824;5.644;2023-05-11T01:56:47;100548.56;;;18.41;62.14
36260;BME280;22296;50.824;5.644;2023-05-11T01:59:16;100558.56;;;18.42;62.05
36260;BME280;22296;50.824;5.644;2023-05-11T02:01:44;100552.50;;;18.40;61.90
36260;BME280;22296;50.824;5.644;2023-05-11T02:04:13;100562.06;;;18.39;62.03
36260;BME280;22296;50.824;5.644;2023-05-11T02:06:44;100563.66;;;18.40;61.87
36260;BME280;22296;50.824;5.644;2023-05-11T02:09:15;100560.41;;;18.38;62.21
36260;BME280;22296;50.824;5.644;2023-05-11T02:11:44;100566.00;;;18.38;62.12
36260;BME280;22296;50.824;5.644;2023-05-11T02:14:16;100569.94;;;18.37;61.87
36260;BME280;22296;50.824;5.644;2023-05-11T02:16:47;100564.38;;;18.37;62.13
36260;BME280;22296;50.824;5.644;2023-05-11T02:19:17;100561.13;;;18.35;62.28
36260;BME280;22296;50.824;5.644;2023-05-11T02:21:45;100562.75;;;18.36;61.89
36260;BME280;22296;50.824;5.644;2023-05-11T02:24:13;100570.31;;;18.36;62.08
36260;BME280;22296;50.824;5.644;2023-05-11T02:26:41;100564.38;;;18.37;61.93
36260;BME280;22296;50.824;5.644;2023-05-11T02:29:08;100566.72;;;18.35;62.12
36260;BME280;22296;50.824;5.644;2023-05-11T02:31:39;100570.66;;;18.34;62.21
36260;BME280;22296;50.824;5.644;2023-05-11T02:34:33;100571.47;;;18.35;62.30
36260;BME280;22296;50.824;5.644;2023-05-11T02:37:01;100567.06;;;18.34;62.02
36260;BME280;22296;50.824;5.644;2023-05-11T02:39:34;100553.09;;;18.34;61.89
36260;BME280;22296;50.824;5.644;2023-05-11T02:42:28;100560.19;;;18.31;61.94
36260;BME280;22296;50.824;5.644;2023-05-11T02:45:15;100565.06;;;18.34;61.88
36260;BME280;22296;50.824;5.644;2023-05-11T02:47:47;100556.22;;;18.32;62.00
36260;BME280;22296;50.824;5.644;2023-05-11T02:50:22;100552.28;;;18.33;61.90
36260;BME280;22296;50.824;5.644;2023-05-11T02:52:54;100548.22;;;18.31;61.91
36260;BME280;22296;50.824;5.644;2023-05-11T02:55:23;100558.56;;;18.30;62.09
36260;BME280;22296;50.824;5.644;2023-05-11T02:57:50;100550.19;;;18.30;61.96
36260;BME280;22296;50.824;5.644;2023-05-11T03:00:18;100545.06;;;18.32;61.83
36260;BME280;22296;50.824;5.644;2023-05-11T03:02:46;100548.22;;;18.31;62.03
36260;BME280;22296;50.824;5.644;2023-05-11T03:05:18;100542.63;;;18.31;61.78
36260;BME280;22296;50.824;5.644;2023-05-11T03:07:45;100545.75;;;18.29;62.21
36260;BME280;22296;50.824;5.644;2023-05-11T03:10:13;100545.44;;;18.31;62.07
36260;BME280;22296;50.824;5.644;2023-05-11T03:12:42;100549.00;;;18.31;62.14
36260;BME280;22296;50.824;5.644;2023-05-11T03:15:12;100544.94;;;18.29;62.20
36260;BME280;22296;50.824;5.644;2023-05-11T03:17:45;100546.47;;;18.26;62.15
36260;BME280;22296;50.824;5.644;2023-05-11T03:20:14;100539.28;;;18.25;62.09
36260;BME280;22296;50.824;5.644;2023-05-11T03:22:43;100543.66;;;18.26;62.33
36260;BME280;22296;50.824;5.644;2023-05-11T03:25:11;100545.63;;;18.26;62.06
36260;BME280;22296;50.824;5.644;2023-05-11T03:27:40;100538.44;;;18.25;62.23
36260;BME280;22296;50.824;5.644;2023-05-11T03:30:10;100541.56;;;18.23;62.11
36260;BME280;22296;50.824;5.644;2023-05-11T03:32:43;100543.91;;;18.21;62.20
36260;BME280;22296;50.824;5.644;2023-05-11T03:35:10;100547.16;;;18.23;62.10
36260;BME280;22296;50.824;5.644;2023-05-11T03:37:37;100549.94;;;18.23;61.80
36260;BME280;22296;50.824;5.644;2023-05-11T03:40:07;100556.72;;;18.22;62.15
36260;BME280;22296;50.824;5.644;2023-05-11T03:42:45;100555.06;;;18.21;62.53
36260;BME280;22296;50.824;5.644;2023-05-11T03:45:13;100545.56;;;18.22;61.96
36260;BME280;22296;50.824;5.644;2023-05-11T03:47:45;100549.50;;;18.21;62.08
36260;BME280;22296;50.824;5.644;2023-05-11T03:50:14;100552.28;;;18.21;62.39
36260;BME280;22296;50.824;5.644;2023-05-11T03:52:41;100547.84;;;18.20;62.30
36260;BME280;22296;50.824;5.644;2023-05-11T03:55:09;100553.44;;;18.20;62.46
36260;BME280;22296;50.824;5.644;2023-05-11T03:57:36;100552.63;;;18.19;62.17
36260;BME280;22296;50.824;5.644;2023-05-11T04:00:05;100543.78;;;18.17;62.41
36260;BME280;22296;50.824;5.644;2023-05-11T04:02:40;100541.34;;;18.16;62.47
36260;BME280;22296;50.824;5.644;2023-05-11T04:05:09;100541.81;;;18.18;62.09
36260;BME280;22296;50.824;5.644;2023-05-11T04:07:38;100545.75;;;18.17;62.35
36260;BME280;22296;50.824;5.644;2023-05-11T04:10:05;100537.38;;;18.17;62.49
36260;BME280;22296;50.824;5.644;2023-05-11T04:12:32;100546.94;;;18.16;62.33
36260;BME280;22296;50.824;5.644;2023-05-11T04:14:59;100543.66;;;18.14;62.18
36260;BME280;22296;50.824;5.644;2023-05-11T04:17:26;100542.06;;;18.13;62.53
36260;BME280;22296;50.824;5.644;2023-05-11T04:19:53;100549.16;;;18.10;62.30
36260;BME280;22296;50.824;5.644;2023-05-11T04:22:19;100550.75;;;18.11;62.43
36260;BME280;22296;50.824;5.644;2023-05-11T04:24:46;100553.22;;;18.13;62.14
36260;BME280;22296;50.824;5.644;2023-05-11T04:27:13;100559.25;;;18.15;62.51
36260;BME280;22296;50.824;5.644;2023-05-11T04:29:42;100558.81;;;18.13;62.50
36260;BME280;22296;50.824;5.644;2023-05-11T04:32:09;100559.50;;;18.10;62.18
36260;BME280;22296;50.824;5.644;2023-05-11T04:34:36;100557.84;;;18.09;62.37
36260;BME280;22296;50.824;5.644;2023-05-11T04:37:04;100561.09;;;18.11;62.31
36260;BME280;22296;50.824;5.644;2023-05-11T04:39:34;100568.31;;;18.12;62.17
36260;BME280;22296;50.824;5.644;2023-05-11T04:42:02;100563.56;;;18.12;62.21
36260;BME280;22296;50.824;5.644;2023-05-11T04:44:29;100561.09;;;18.11;62.31
36260;BME280;22296;50.824;5.644;2023-05-11T04:46:56;100563.91;;;18.11;62.25
36260;BME280;22296;50.824;5.644;2023-05-11T04:49:23;100569.47;;;18.11;62.25
36260;BME280;22296;50.824;5.644;2023-05-11T04:51:50;100566.59;;;18.07;62.52
36260;BME280;22296;50.824;5.644;2023-05-11T04:54:17;100569.03;;;18.09;62.37
36260;BME280;22296;50.824;5.644;2023-05-11T04:56:43;100573.00;;;18.08;61.90
36260;BME280;22296;50.824;5.644;2023-05-11T04:59:10;100570.66;;;18.10;62.36
36260;BME280;22296;50.824;5.644;2023-05-11T05:01:37;100571.81;;;18.09;62.01
36260;BME280;22296;50.824;5.644;2023-05-11T05:04:04;100573.00;;;18.08;62.04
36260;BME280;22296;50.824;5.644;2023-05-11T05:06:31;100573.00;;;18.08;61.96
36260;BME280;22296;50.824;5.644;2023-05-11T05:08:58;100575.78;;;18.08;62.17
36260;BME280;22296;50.824;5.644;2023-05-11T05:11:25;100579.38;;;18.08;62.09
36260;BME280;22296;50.824;5.644;2023-05-11T05:13:53;100588.09;;;18.07;62.48
36260;BME280;22296;50.824;5.644;2023-05-11T05:16:21;100581.69;;;18.06;62.25
36260;BME280;22296;50.824;5.644;2023-05-11T05:18:47;100582.50;;;18.07;62.19
36260;BME280;22296;50.824;5.644;2023-05-11T05:21:14;100592.53;;;18.08;62.02
36260;BME280;22296;50.824;5.644;2023-05-11T05:23:43;100589.25;;;18.06;62.48
36260;BME280;22296;50.824;5.644;2023-05-11T05:26:10;100592.03;;;18.06;62.46
36260;BME280;22296;50.824;5.644;2023-05-11T05:28:38;100593.69;;;18.07;62.12
36260;BME280;22296;50.824;5.644;2023-05-11T05:31:07;100597.63;;;18.06;62.11
36260;BME280;22296;50.824;5.644;2023-05-11T05:33:34;100598.44;;;18.06;62.30
36260;BME280;22296;50.824;5.644;2023-05-11T05:36:01;100600.91;;;18.08;62.38
36260;BME280;22296;50.824;5.644;2023-05-11T05:38:28;100610.44;;;18.07;62.38
36260;BME280;22296;50.824;5.644;2023-05-11T05:40:56;100592.03;;;18.06;62.01
36260;BME280;22296;50.824;5.644;2023-05-11T05:43:24;100601.69;;;18.08;62.15
36260;BME280;22296;50.824;5.644;2023-05-11T05:45:51;100610.44;;;18.07;62.16
36260;BME280;22296;50.824;5.644;2023-05-11T05:48:17;100620.44;;;18.08;62.00
36260;BME280;22296;50.824;5.644;2023-05-11T05:50:45;100611.25;;;18.07;62.26
36260;BME280;22296;50.824;5.644;2023-05-11T05:53:12;100602.06;;;18.07;62.14
36260;BME280;22296;50.824;5.644;2023-05-11T05:55:39;100613.94;;;18.16;62.11
36260;BME280;22296;50.824;5.644;2023-05-11T05:58:06;100616.22;;;18.14;61.86
36260;BME280;22296;50.824;5.644;2023-05-11T06:00:34;100617.75;;;18.11;62.41
36260;BME280;22296;50.824;5.644;2023-05-11T06:03:05;100611.34;;;18.11;62.21
36260;BME280;22296;50.824;5.644;2023-05-11T06:05:32;100616.47;;;18.09;62.08
36260;BME280;22296;50.824;5.644;2023-05-11T06:07:59;100621.59;;;18.07;62.35
36260;BME280;22296;50.824;5.644;2023-05-11T06:10:37;100627.50;;;18.05;62.15
36260;BME280;22296;50.824;5.644;2023-05-11T06:13:07;100631.47;;;18.04;62.27
36260;BME280;22296;50.824;5.644;2023-05-11T06:15:36;100632.75;;;18.07;62.21
36260;BME280;22296;50.824;5.644;2023-05-11T06:18:12;100641.44;;;18.05;62.19
36260;BME280;22296;50.824;5.644;2023-05-11T06:20:40;100635.88;;;18.05;62.35
36260;BME280;22296;50.824;5.644;2023-05-11T06:23:08;100638.69;;;18.17;62.49
36260;BME280;22296;50.824;5.644;2023-05-11T06:25:37;100644.31;;;18.42;61.67
36260;BME280;22296;50.824;5.644;2023-05-11T06:28:05;100642.09;;;18.47;61.49
36260;BME280;22296;50.824;5.644;2023-05-11T06:30:34;100649.31;;;18.48;61.91
36260;BME280;22296;50.824;5.644;2023-05-11T06:33:02;100650.63;;;18.51;61.96
36260;BME280;22296;50.824;5.644;2023-05-11T06:35:29;100646.31;;;18.53;61.60
36260;BME280;22296;50.824;5.644;2023-05-11T06:37:56;100649.91;;;18.42;61.88
36260;BME280;22296;50.824;5.644;2023-05-11T06:40:24;100645.56;;;18.32;62.02
36260;BME280;22296;50.824;5.644;2023-05-11T06:42:51;100650.69;;;18.30;61.84
36260;BME280;22296;50.824;5.644;2023-05-11T06:45:18;100654.31;;;18.31;61.77
36260;BME280;22296;50.824;5.644;2023-05-11T06:47:45;100649.50;;;18.31;61.75
36260;BME280;22296;50.824;5.644;2023-05-11T06:50:12;100653.50;;;18.30;61.65
36260;BME280;22296;50.824;5.644;2023-05-11T06:52:38;100652.31;;;18.31;61.94
36260;BME280;22296;50.824;5.644;2023-05-11T06:55:06;100655.09;;;18.31;61.92
36260;BME280;22296;50.824;5.644;2023-05-11T06:57:33;100647.09;;;18.30;62.00
36260;BME280;22296;50.824;5.644;2023-05-11T06:59:59;100647.91;;;18.30;61.78
36260;BME280;22296;50.824;5.644;2023-05-11T07:02:29;100654.66;;;18.29;61.67
36260;BME280;22296;50.824;5.644;2023-05-11T07:04:57;100657.44;;;18.29;61.85
36260;BME280;22296;50.824;5.644;2023-05-11T07:07:24;100658.59;;;18.28;61.95
36260;BME280;22296;50.824;5.644;2023-05-11T07:09:51;100658.13;;;18.26;61.81
36260;BME280;22296;50.824;5.644;2023-05-11T07:12:17;100654.88;;;18.24;61.76
36260;BME280;22296;50.824;5.644;2023-05-11T07:14:45;100668.13;;;18.27;61.59
36260;BME280;22296;50.824;5.644;2023-05-11T07:17:11;100663.72;;;18.26;61.90
36260;BME280;22296;50.824;5.644;2023-05-11T07:19:38;100666.03;;;18.24;62.09
36260;BME280;22296;50.824;5.644;2023-05-11T07:22:05;100658.81;;;18.23;61.70
36260;BME280;22296;50.824;5.644;2023-05-11T07:24:32;100666.03;;;18.24;61.78
36260;BME280;22296;50.824;5.644;2023-05-11T07:26:59;100666.03;;;18.24;61.78
36260;BME280;22296;50.824;5.644;2023-05-11T07:29:27;100666.03;;;18.24;61.62
36260;BME280;22296;50.824;5.644;2023-05-11T07:31:54;100664.75;;;18.21;61.85
36260;BME280;22296;50.824;5.644;2023-05-11T07:34:21;100669.97;;;18.23;61.79
36260;BME280;22296;50.824;5.644;2023-05-11T07:36:47;100668.38;;;18.22;61.73
36260;BME280;22296;50.824;5.644;2023-05-11T07:39:14;100668.38;;;18.22;61.40
36260;BME280;22296;50.824;5.644;2023-05-11T07:41:42;100672.53;;;18.28;61.47
36260;BME280;22296;50.824;5.644;2023-05-11T07:44:09;100684.16;;;18.51;60.89
36260;BME280;22296;50.824;5.644;2023-05-11T07:46:36;100675.16;;;18.57;61.08
36260;BME280;22296;50.824;5.644;2023-05-11T07:49:02;100665.59;;;18.46;61.27
36260;BME280;22296;50.824;5.644;2023-05-11T07:51:44;100671.28;;;18.38;61.43
36260;BME280;22296;50.824;5.644;2023-05-11T07:54:11;100672.34;;;18.33;61.57
36260;BME280;22296;50.824;5.644;2023-05-11T07:56:38;100680.72;;;18.33;61.29
36260;BME280;22296;50.824;5.644;2023-05-11T07:59:04;100667.09;;;18.32;61.38
36260;BME280;22296;50.824;5.644;2023-05-11T08:01:31;100666.25;;;18.31;61.67
36260;BME280;22296;50.824;5.644;2023-05-11T08:03:58;100665.47;;;18.31;61.70
36260;BME280;22296;50.824;5.644;2023-05-11T08:06:26;100668.59;;;18.29;61.55
36260;BME280;22296;50.824;5.644;2023-05-11T08:08:53;100672.53;;;18.28;61.72
36260;BME280;22296;50.824;5.644;2023-05-11T08:11:20;100675.00;;;18.30;61.52
36260;BME280;22296;50.824;5.644;2023-05-11T08:13:47;100667.72;;;18.49;60.97
36260;BME280;22296;50.824;5.644;2023-05-11T08:16:13;100670.97;;;18.51;60.67
36260;BME280;22296;50.824;5.644;2023-05-11T08:18:40;100669.06;;;18.43;61.09
36260;BME280;22296;50.824;5.644;2023-05-11T08:21:07;100669.66;;;18.37;61.28
36260;BME280;22296;50.824;5.644;2023-05-11T08:23:34;100683.03;;;18.31;61.25
36260;BME280;22296;50.824;5.644;2023-05-11T08:26:01;100676.53;;;18.39;61.51
36260;BME280;22296;50.824;5.644;2023-05-11T08:28:28;100671.47;;;18.53;61.23
36260;BME280;22296;50.824;5.644;2023-05-11T08:30:56;100675.66;;;18.59;60.69
36260;BME280;22296;50.824;5.644;2023-05-11T08:33:23;100677.03;;;18.65;61.07
36260;BME280;22296;50.824;5.644;2023-05-11T08:36:05;100681.13;;;18.68;60.64
36260;BME280;22296;50.824;5.644;2023-05-11T08:38:33;100674.03;;;18.70;60.46
36260;BME280;22296;50.824;5.644;2023-05-11T08:41:00;100680.78;;;18.82;60.44
36260;BME280;22296;50.824;5.644;2023-05-11T08:43:28;100672.63;;;18.76;60.55
36260;BME280;22296;50.824;5.644;2023-05-11T08:45:58;100678.44;;;18.84;60.34
36260;BME280;22296;50.824;5.644;2023-05-11T08:48:27;100684.97;;;18.88;60.27
36260;BME280;22296;50.824;5.644;2023-05-11T08:50:54;100679.72;;;18.86;60.41
36260;BME280;22296;50.824;5.644;2023-05-11T08:53:22;100682.63;;;18.90;60.00
36260;BME280;22296;50.824;5.644;2023-05-11T08:55:49;100683.06;;;18.92;60.29
36260;BME280;22296;50.824;5.644;2023-05-11T08:58:18;100684.25;;;18.91;60.09
36260;BME280;22296;50.824;5.644;2023-05-11T09:00:48;100692.28;;;18.92;60.05
36260;BME280;22296;50.824;5.644;2023-05-11T09:03:16;100694.03;;;18.97;59.96
36260;BME280;22296;50.824;5.644;2023-05-11T09:05:45;100694.50;;;18.99;60.23
36260;BME280;22296;50.824;5.644;2023-05-11T09:08:14;100701.25;;;18.98;60.26
36260;BME280;22296;50.824;5.644;2023-05-11T09:10:41;100696.13;;;19.00;60.16
36260;BME280;22296;50.824;5.644;2023-05-11T09:13:09;100691.00;;;19.02;60.16
36260;BME280;22296;50.824;5.644;2023-05-11T09:15:37;100697.75;;;18.89;60.33
36260;BME280;22296;50.824;5.644;2023-05-11T09:18:04;100686.59;;;18.76;60.28
36260;BME280;22296;50.824;5.644;2023-05-11T09:20:32;100691.25;;;18.72;60.43
36260;BME280;22296;50.824;5.644;2023-05-11T09:23:00;100690.78;;;18.70;60.42
36260;BME280;22296;50.824;5.644;2023-05-11T09:25:31;100696.38;;;18.70;60.82
36260;BME280;22296;50.824;5.644;2023-05-11T09:28:00;100699.50;;;18.69;60.83
36260;BME280;22296;50.824;5.644;2023-05-11T09:30:27;100695.44;;;18.66;60.81
36260;BME280;22296;50.824;5.644;2023-05-11T09:32:56;100691.00;;;18.65;60.44
36260;BME280;22296;50.824;5.644;2023-05-11T09:35:23;100694.16;;;18.64;60.39
36260;BME280;22296;50.824;5.644;2023-05-11T09:38:11;100685.78;;;18.64;60.66
36260;BME280;22296;50.824;5.644;2023-05-11T09:40:39;100691.72;;;18.62;60.70
36260;BME280;22296;50.824;5.644;2023-05-11T09:45:47;100688.44;;;18.60;60.91
36260;BME280;22296;50.824;5.644;2023-05-11T09:50:42;100690.31;;;18.56;60.97
36260;BME280;22296;50.824;5.644;2023-05-11T09:53:09;100691.84;;;18.54;60.83
36260;BME280;22296;50.824;5.644;2023-05-11T09:55:36;100694.97;;;18.52;60.88
36260;BME280;22296;50.824;5.644;2023-05-11T09:58:03;100693.31;;;18.51;60.87
36260;BME280;22296;50.824;5.644;2023-05-11T10:00:30;100693.69;;;18.50;60.90
36260;BME280;22296;50.824;5.644;2023-05-11T10:02:59;100695.66;;;18.49;60.72
36260;BME280;22296;50.824;5.644;2023-05-11T10:05:31;100693.19;;;18.48;61.13
36260;BME280;22296;50.824;5.644;2023-05-11T10:07:59;100703.53;;;18.47;60.82
36260;BME280;22296;50.824;5.644;2023-05-11T10:10:27;100694.66;;;18.45;60.75
36260;BME280;22296;50.824;5.644;2023-05-11T10:12:57;100695.16;;;18.47;60.95
36260;BME280;22296;50.824;5.644;2023-05-11T10:15:26;100697.13;;;18.47;60.67
36260;BME280;22296;50.824;5.644;2023-05-11T10:17:54;100695.50;;;18.46;61.15
36260;BME280;22296;50.824;5.644;2023-05-11T10:20:23;100689.09;;;18.45;61.14
36260;BME280;22296;50.824;5.644;2023-05-11T10:22:53;100689.09;;;18.45;60.97
36260;BME280;22296;50.824;5.644;2023-05-11T10:25:21;100682.34;;;18.46;61.00
36260;BME280;22296;50.824;5.644;2023-05-11T10:27:50;100679.81;;;18.65;60.62
36260;BME280;22296;50.824;5.644;2023-05-11T10:30:17;100683.81;;;18.76;60.60
36260;BME280;22296;50.824;5.644;2023-05-11T10:32:45;100687.50;;;18.81;60.14
36260;BME280;22296;50.824;5.644;2023-05-11T10:35:15;100685.28;;;18.86;60.39
36260;BME280;22296;50.824;5.644;2023-05-11T10:37:42;100681.47;;;18.91;60.42
36260;BME280;22296;50.824;5.644;2023-05-11T10:40:09;100692.28;;;18.92;60.28
36260;BME280;22296;50.824;5.644;2023-05-11T10:45:28;100682.88;;;18.97;60.24
36260;BME280;22296;50.824;5.644;2023-05-11T10:48:17;100688.66;;;19.04;59.79
36260;BME280;22296;50.824;5.644;2023-05-11T11:02:37;100684.97;;;18.75;60.66
36260;BME280;22296;50.824;5.644;2023-05-11T11:05:05;100677.28;;;18.72;60.46
36260;BME280;22296;50.824;5.644;2023-05-11T11:08:06;100680.06;;;18.72;60.37
36260;BME280;22296;50.824;5.644;2023-05-11T11:13:04;100670.03;;;18.71;60.69
36260;BME280;22296;50.824;5.644;2023-05-11T11:18:28;100672.38;;;18.69;60.52
36260;BME280;22296;50.824;5.644;2023-05-11T11:20:56;100676.34;;;18.68;60.64
36260;BME280;22296;50.824;5.644;2023-05-11T11:26:11;100670.66;;;18.65;60.78
36260;BME280;22296;50.824;5.644;2023-05-11T11:31:24;100668.19;;;18.63;60.52
36260;BME280;22296;50.824;5.644;2023-05-11T11:33:52;100670.66;;;18.65;60.67
36260;BME280;22296;50.824;5.644;2023-05-11T11:39:20;100669.84;;;18.64;60.55
36260;BME280;22296;50.824;5.644;2023-05-11T11:44:32;100667.50;;;18.66;60.36
36260;BME280;22296;50.824;5.644;2023-05-11T11:47:15;100665.84;;;18.65;60.35
36260;BME280;22296;50.824;5.644;2023-05-11T11:49:44;100662.59;;;18.63;60.66
36260;BME280;22296;50.824;5.644;2023-05-11T11:52:13;100662.59;;;18.63;60.58
36260;BME280;22296;50.824;5.644;2023-05-11T11:54:43;100662.59;;;18.63;60.38
36260;BME280;22296;50.824;5.644;2023-05-11T12:00:07;100660.63;;;18.64;60.48
36260;BME280;22296;50.824;5.644;2023-05-11T12:02:41;100662.59;;;18.63;60.48
36260;BME280;22296;50.824;5.644;2023-05-11T12:05:14;100658.19;;;18.62;60.61
36260;BME280;22296;50.824;5.644;2023-05-11T12:07:49;100663.19;;;18.81;60.56
36260;BME280;22296;50.824;5.644;2023-05-11T12:10:19;100662.00;;;18.94;60.20
36260;BME280;22296;50.824;5.644;2023-05-11T12:12:47;100659.81;;;19.00;60.12
36260;BME280;22296;50.824;5.644;2023-05-11T12:15:28;100662.22;;;19.01;60.19
36260;BME280;22296;50.824;5.644;2023-05-11T12:17:55;100661.53;;;19.04;60.17
36260;BME280;22296;50.824;5.644;2023-05-11T12:20:23;100652.81;;;18.94;60.13
36260;BME280;22296;50.824;5.644;2023-05-11T12:22:51;100660.97;;;18.87;60.01
36260;BME280;22296;50.824;5.644;2023-05-11T12:25:19;100659.31;;;18.86;60.30
36260;BME280;22296;50.824;5.644;2023-05-11T12:27:52;100661.91;;;18.91;59.95
36260;BME280;22296;50.824;5.644;2023-05-11T12:30:31;100647.19;;;19.06;60.09
36260;BME280;22296;50.824;5.644;2023-05-11T12:32:59;100646.59;;;19.12;59.50
36260;BME280;22296;50.824;5.644;2023-05-11T12:35:31;100657.91;;;19.16;59.85
36260;BME280;22296;50.824;5.644;2023-05-11T12:38:00;100644.13;;;19.23;59.64
36260;BME280;22296;50.824;5.644;2023-05-11T12:40:30;100649.00;;;19.26;59.31
36260;BME280;22296;50.824;5.644;2023-05-11T12:42:58;100652.97;;;19.25;59.32
36260;BME280;22296;50.824;5.644;2023-05-11T12:45:26;100653.44;;;19.27;59.58
36260;BME280;22296;50.824;5.644;2023-05-11T12:47:54;100646.88;;;19.35;59.06
36260;BME280;22296;50.824;5.644;2023-05-11T12:50:22;100642.00;;;19.32;59.43
36260;BME280;22296;50.824;5.644;2023-05-11T12:52:49;100632.91;;;19.35;59.30
36260;BME280;22296;50.824;5.644;2023-05-11T12:55:27;100637.47;;;19.40;59.17
36260;BME280;22296;50.824;5.644;2023-05-11T12:58:12;100632.59;;;19.24;59.20
36260;BME280;22296;50.824;5.644;2023-05-11T13:00:52;100633.44;;;19.13;59.51
36260;BME280;22296;50.824;5.644;2023-05-11T13:03:23;100629.72;;;19.09;59.57
36260;BME280;22296;50.824;5.644;2023-05-11T13:05:51;100629.25;;;19.07;59.84
36260;BME280;22296;50.824;5.644;2023-05-11T13:08:29;100626.47;;;19.07;59.70
36260;BME280;22296;50.824;5.644;2023-05-11T13:11:18;100618.78;;;19.04;59.77
36260;BME280;22296;50.824;5.644;2023-05-11T13:13:46;100624.75;;;19.02;59.75
36260;BME280;22296;50.824;5.644;2023-05-11T13:16:23;100619.47;;;19.01;60.18
36260;BME280;22296;50.824;5.644;2023-05-11T13:19:25;100623.47;;;19.00;59.92
36260;BME280;22296;50.824;5.644;2023-05-11T13:21:51;100619.03;;;18.99;60.04
36260;BME280;22296;50.824;5.644;2023-05-11T13:24:19;100616.56;;;18.97;59.93
36260;BME280;22296;50.824;5.644;2023-05-11T13:26:46;100614.16;;;18.96;59.93
36260;BME280;22296;50.824;5.644;2023-05-11T13:29:13;100615.78;;;18.97;59.87
36260;BME280;22296;50.824;5.644;2023-05-11T13:31:44;100614.16;;;18.96;59.85
36260;BME280;22296;50.824;5.644;2023-05-11T13:34:11;100618.09;;;18.95;60.09
36260;BME280;22296;50.824;5.644;2023-05-11T13:36:38;100610.91;;;18.94;60.07
36260;BME280;22296;50.824;5.644;2023-05-11T13:39:06;100610.91;;;18.94;59.97
36260;BME280;22296;50.824;5.644;2023-05-11T13:41:33;100609.72;;;18.95;59.93
36260;BME280;22296;50.824;5.644;2023-05-11T13:44:00;100610.53;;;18.95;60.06
36260;BME280;22296;50.824;5.644;2023-05-11T13:46:27;100603.66;;;18.93;60.13
36260;BME280;22296;50.824;5.644;2023-05-11T13:48:54;100606.91;;;18.95;60.05
36260;BME280;22296;50.824;5.644;2023-05-11T13:51:22;100599.72;;;18.94;59.89